createdAt,value
2018-08-10T00:00:10.236Z,98.20
2018-08-10T00:02:38.589Z,98.00
2018-08-10T00:05:07.375Z,98.10
2018-08-10T00:07:35.572Z,98.20
2018-08-10T00:10:04.466Z,98.30
2018-08-10T00:12:32.550Z,98.00
2018-08-10T00:15:00.607Z,97.90
2018-08-10T00:17:28.629Z,97.70
2018-08-10T00:19:56.677Z,97.40
2018-08-10T00:22:24.729Z,97.70
2018-08-10T00:24:52.772Z,97.30
2018-08-10T00:27:20.816Z,97.50
2018-08-10T00:29:48.860Z,97.60
2018-08-10T00:32:16.908Z,97.80
2018-08-10T00:34:44.960Z,98.30
2018-08-10T00:37:13.001Z,98.50
2018-08-10T00:39:41.052Z,98.40
2018-08-10T00:42:09.096Z,98.40
2018-08-10T00:44:37.153Z,98.20
2018-08-10T00:47:05.216Z,98.00
2018-08-10T00:49:33.273Z,97.80
2018-08-10T00:52:01.318Z,97.60
2018-08-10T00:54:29.379Z,97.50
2018-08-10T00:56:57.404Z,97.30
2018-08-10T00:59:25.451Z,97.40
2018-08-10T01:01:53.570Z,97.00
2018-08-10T01:04:21.548Z,97.00
2018-08-10T01:06:49.596Z,97.00
2018-08-10T01:09:17.680Z,97.10
2018-08-10T01:11:45.703Z,97.30
2018-08-10T01:14:13.749Z,97.00
2018-08-10T01:16:41.788Z,97.00
2018-08-10T01:19:09.875Z,97.20
2018-08-10T01:21:37.913Z,97.20
2018-08-10T01:24:05.982Z,97.40
2018-08-10T01:26:33.996Z,97.50
2018-08-10T01:29:02.065Z,97.50
2018-08-10T01:31:30.084Z,97.70
2018-08-10T01:33:58.221Z,97.60
2018-08-10T01:36:26.256Z,97.70
2018-08-10T01:38:54.289Z,97.90
2018-08-10T01:41:22.340Z,97.90
2018-08-10T01:43:50.385Z,98.10
2018-08-10T01:46:18.436Z,98.10
2018-08-10T01:48:46.477Z,97.90
2018-08-10T01:51:14.528Z,98.00
2018-08-10T01:53:42.696Z,98.30
2018-08-10T01:56:10.741Z,98.20
2018-08-10T01:58:38.775Z,98.40
2018-08-10T02:01:06.816Z,98.30
2018-08-10T02:03:34.852Z,98.40
2018-08-10T02:06:02.906Z,98.30
2018-08-10T02:08:30.944Z,98.50
2018-08-10T02:10:59.004Z,98.60
2018-08-10T02:13:27.045Z,98.60
2018-08-10T02:15:55.088Z,98.40
2018-08-10T02:18:23.132Z,98.10
2018-08-10T02:20:51.216Z,98.20
2018-08-10T02:23:19.237Z,98.10
2018-08-10T02:25:47.387Z,98.20
2018-08-10T02:28:15.412Z,98.40
2018-08-10T02:30:43.465Z,97.80
2018-08-10T02:33:11.504Z,98.10
2018-08-10T02:35:39.550Z,98.00
2018-08-10T02:38:07.589Z,97.90
2018-08-10T02:40:35.642Z,97.80
2018-08-10T02:43:03.685Z,97.90
2018-08-10T02:48:06.148Z,98.00
2018-08-10T02:50:34.275Z,98.10
2018-08-10T02:53:02.292Z,98.30
2018-08-10T02:55:30.373Z,97.90
2018-08-10T02:57:58.413Z,97.90
2018-08-10T03:00:26.457Z,98.10
2018-08-10T03:02:54.496Z,98.20
2018-08-10T03:05:22.535Z,97.90
2018-08-10T03:07:50.577Z,97.90
2018-08-10T03:10:18.708Z,98.30
2018-08-10T03:12:46.835Z,98.30
2018-08-10T03:15:16.054Z,98.70
2018-08-10T03:18:21.924Z,98.40
2018-08-10T03:20:49.965Z,98.70
2018-08-10T03:23:18.005Z,98.70
2018-08-10T03:25:46.044Z,99.00
2018-08-10T03:28:14.096Z,99.20
2018-08-10T03:30:42.136Z,99.40
2018-08-10T03:33:10.173Z,99.30
2018-08-10T03:35:38.216Z,99.40
2018-08-10T03:38:06.244Z,99.50
2018-08-10T03:40:34.372Z,99.70
2018-08-10T03:43:02.384Z,99.90
2018-08-10T03:45:30.424Z,99.90
2018-08-10T03:47:58.464Z,99.90
2018-08-10T03:50:26.496Z,99.90
2018-08-10T03:52:54.544Z,99.90
2018-08-10T03:55:22.579Z,99.80
2018-08-10T03:57:50.625Z,99.90
2018-08-10T04:00:18.668Z,99.90
2018-08-10T04:02:46.708Z,99.90
2018-08-10T04:05:14.755Z,99.90
2018-08-10T04:07:42.951Z,99.90
2018-08-10T04:10:11.390Z,99.90
2018-08-10T04:12:39.596Z,99.90
2018-08-10T04:15:09.919Z,99.90
2018-08-10T04:17:37.980Z,99.90
2018-08-10T04:20:06.390Z,99.90
2018-08-10T04:22:34.428Z,99.90
2018-08-10T04:25:02.496Z,99.90
2018-08-10T04:27:30.556Z,99.90
2018-08-10T04:29:58.620Z,99.90
2018-08-10T04:32:26.692Z,99.90
2018-08-10T04:34:54.795Z,99.90
2018-08-10T04:37:22.881Z,99.90
2018-08-10T04:39:50.916Z,99.90
2018-08-10T04:42:18.976Z,99.90
2018-08-10T04:44:47.031Z,99.90
2018-08-10T04:47:15.104Z,99.90
2018-08-10T04:49:43.160Z,99.90
2018-08-10T04:52:11.224Z,99.90
2018-08-10T04:54:39.285Z,99.90
2018-08-10T04:57:07.458Z,99.90
2018-08-10T04:59:35.489Z,99.90
2018-08-10T05:02:03.584Z,99.90
2018-08-10T05:04:31.637Z,99.90
2018-08-10T05:06:59.695Z,99.90
2018-08-10T05:09:27.755Z,99.90
2018-08-10T05:11:55.834Z,99.90
2018-08-10T05:14:23.946Z,99.90
2018-08-10T05:16:51.987Z,99.90
2018-08-10T05:19:20.042Z,99.90
2018-08-10T05:21:48.105Z,99.90
2018-08-10T05:24:16.181Z,99.90
2018-08-10T05:26:44.244Z,99.90
2018-08-10T05:29:12.310Z,99.90
2018-08-10T05:31:40.372Z,99.90
2018-08-10T05:34:08.433Z,99.90
2018-08-10T05:36:36.509Z,99.90
2018-08-10T05:39:07.512Z,99.90
2018-08-10T05:41:35.711Z,99.90
2018-08-10T05:44:03.832Z,99.90
2018-08-10T05:46:31.828Z,99.90
2018-08-10T05:48:59.896Z,99.90
2018-08-10T05:51:27.960Z,99.90
2018-08-10T05:53:56.044Z,99.90
2018-08-10T05:56:24.099Z,99.90
2018-08-10T05:58:52.161Z,99.90
2018-08-10T06:01:20.223Z,99.90
2018-08-10T06:03:48.359Z,99.90
2018-08-10T06:06:16.348Z,99.90
2018-08-10T06:08:44.413Z,99.90
2018-08-10T06:11:12.559Z,99.90
2018-08-10T06:13:40.589Z,99.90
2018-08-10T06:16:08.673Z,99.90
2018-08-10T06:18:36.716Z,99.90
2018-08-10T06:21:04.753Z,99.90
2018-08-10T06:23:32.796Z,99.50
2018-08-10T06:26:00.831Z,99.40
2018-08-10T06:28:28.945Z,98.20
2018-08-10T06:30:57.087Z,98.20
2018-08-10T06:33:25.129Z,96.40
2018-08-10T06:35:53.163Z,94.80
2018-08-10T06:38:21.209Z,91.90
2018-08-10T06:40:49.242Z,90.70
2018-08-10T06:43:17.454Z,89.40
2018-08-10T06:45:45.554Z,86.00
2018-08-10T06:48:13.744Z,84.00
2018-08-10T06:50:41.785Z,79.70
2018-08-10T06:53:09.879Z,77.10
2018-08-10T06:55:37.963Z,74.20
2018-08-10T06:58:06.063Z,73.80
2018-08-10T07:00:34.089Z,71.60
2018-08-10T07:03:02.113Z,70.90
2018-08-10T07:05:30.156Z,72.20
2018-08-10T07:07:58.208Z,71.50
2018-08-10T07:10:26.589Z,68.20
2018-08-10T07:13:01.141Z,69.50
2018-08-10T07:15:29.150Z,68.80
2018-08-10T07:17:57.201Z,66.60
2018-08-10T07:20:25.236Z,64.90
2018-08-10T07:22:53.288Z,63.50
2018-08-10T07:25:21.327Z,62.10
2018-08-10T07:27:49.390Z,60.00
2018-08-10T07:30:17.436Z,58.70
2018-08-10T07:32:45.515Z,57.70
2018-08-10T07:35:13.585Z,56.10
2018-08-10T07:37:42.128Z,55.30
2018-08-10T07:40:10.168Z,54.00
2018-08-10T07:42:38.229Z,53.80
2018-08-10T07:45:06.283Z,50.70
2018-08-10T07:47:34.332Z,48.60
2018-08-10T07:50:02.387Z,48.40
2018-08-10T07:52:30.436Z,48.10
2018-08-10T07:54:58.485Z,48.00
2018-08-10T07:57:26.654Z,48.50
2018-08-10T08:00:01.644Z,45.20
2018-08-10T08:02:29.692Z,45.10
2018-08-10T08:04:57.757Z,44.30
2018-08-10T08:07:25.801Z,45.40
2018-08-10T08:09:53.878Z,46.30
2018-08-10T08:12:21.948Z,47.70
2018-08-10T08:14:50.107Z,49.30
2018-08-10T08:17:18.168Z,48.50
2018-08-10T08:19:46.431Z,48.80
2018-08-10T08:22:18.776Z,50.10
2018-08-10T08:24:46.852Z,51.40
2018-08-10T08:27:16.219Z,50.10
2018-08-10T08:29:44.220Z,50.40
2018-08-10T08:32:12.648Z,50.80
2018-08-10T08:34:41.081Z,49.90
2018-08-10T08:37:09.537Z,47.00
2018-08-10T08:40:50.412Z,49.70
2018-08-10T08:43:30.669Z,50.50
2018-08-10T08:46:00.537Z,53.10
2018-08-10T08:48:29.644Z,55.20
2018-08-10T08:50:59.148Z,57.90
2018-08-10T08:53:27.196Z,57.50
2018-08-10T08:56:00.540Z,58.80
2018-08-10T08:58:29.157Z,61.60
2018-08-10T09:00:57.215Z,63.50
2018-08-10T09:03:37.000Z,61.30
2018-08-10T09:06:05.870Z,61.30
2018-08-10T09:08:33.940Z,58.90
2018-08-10T09:11:03.488Z,58.10
2018-08-10T09:14:44.712Z,56.20
2018-08-10T09:17:13.015Z,55.90
2018-08-10T09:19:41.804Z,52.60
2018-08-10T09:22:10.189Z,56.00
2018-08-10T09:24:38.389Z,54.90
2018-08-10T09:27:06.453Z,54.20
2018-08-10T09:29:34.959Z,51.60
2018-08-10T09:32:03.245Z,51.40
2018-08-10T09:34:31.363Z,53.30
2018-08-10T09:36:59.921Z,53.50
2018-08-10T09:39:28.716Z,53.40
2018-08-10T09:41:57.041Z,54.50
2018-08-10T09:44:25.101Z,56.00
2018-08-10T09:46:53.204Z,57.50
2018-08-10T09:49:21.256Z,56.60
2018-08-10T09:51:49.385Z,55.20
2018-08-10T09:54:17.415Z,54.60
2018-08-10T09:56:45.465Z,53.10
2018-08-10T09:59:13.508Z,55.40
2018-08-10T10:01:47.113Z,53.20
2018-08-10T10:04:15.724Z,53.50
2018-08-10T10:06:43.835Z,53.20
2018-08-10T10:09:12.204Z,56.10
2018-08-10T10:11:40.253Z,57.40
2018-08-10T10:14:08.971Z,58.50
2018-08-10T10:16:37.226Z,58.00
2018-08-10T10:19:05.425Z,57.80
2018-08-10T10:21:33.469Z,56.30
2018-08-10T10:24:01.615Z,56.00
2018-08-10T10:26:29.698Z,57.90
2018-08-10T10:28:57.901Z,56.80
2018-08-10T10:31:25.941Z,57.20
2018-08-10T10:33:53.994Z,56.70
2018-08-10T10:36:22.039Z,57.30
2018-08-10T10:38:50.123Z,59.50
2018-08-10T10:41:18.172Z,58.90
2018-08-10T10:43:46.204Z,59.90
2018-08-10T10:46:14.248Z,58.70
2018-08-10T10:48:42.289Z,56.60
2018-08-10T10:51:10.447Z,58.40
2018-08-10T10:53:38.461Z,58.60
2018-08-10T10:56:06.613Z,58.90
2018-08-10T10:58:34.698Z,60.20
2018-08-10T11:01:02.730Z,60.50
2018-08-10T11:03:30.777Z,60.00
2018-08-10T11:05:58.824Z,61.60
2018-08-10T11:08:26.877Z,61.10
2018-08-10T11:10:55.021Z,61.20
2018-08-10T11:13:23.105Z,61.80
2018-08-10T11:15:51.168Z,59.60
2018-08-10T11:18:19.377Z,59.80
2018-08-10T11:20:47.401Z,60.70
2018-08-10T11:23:15.556Z,62.50
2018-08-10T11:25:43.726Z,61.00
2018-08-10T11:28:11.629Z,60.30
2018-08-10T11:30:39.672Z,59.20
2018-08-10T11:33:07.707Z,59.60
2018-08-10T11:35:35.777Z,61.00
2018-08-10T11:38:03.846Z,62.00
2018-08-10T11:40:31.978Z,59.50
2018-08-10T11:43:00.022Z,58.90
2018-08-10T11:45:28.261Z,58.60
2018-08-10T11:47:56.313Z,58.10
2018-08-10T11:50:24.382Z,58.40
2018-08-10T11:52:52.421Z,59.90
2018-08-10T11:55:20.536Z,58.20
2018-08-10T11:57:48.580Z,57.80
2018-08-10T12:00:16.715Z,58.00
2018-08-10T12:02:44.728Z,57.80
2018-08-10T12:05:13.520Z,57.80
2018-08-10T12:07:41.584Z,56.50
2018-08-10T12:10:09.696Z,56.40
2018-08-10T12:12:37.887Z,56.90
2018-08-10T12:15:07.948Z,56.70
2018-08-10T12:17:36.276Z,55.30
2018-08-10T12:20:04.668Z,55.40
2018-08-10T12:22:32.708Z,54.60
2018-08-10T12:25:00.765Z,54.60
2018-08-10T12:27:28.823Z,54.90
2018-08-10T12:29:56.905Z,56.70
2018-08-10T12:32:24.991Z,57.60
2018-08-10T12:34:53.076Z,57.90
2018-08-10T12:37:21.123Z,57.70
2018-08-10T12:39:49.251Z,56.80
2018-08-10T12:42:17.284Z,57.40
2018-08-10T12:44:45.347Z,58.00
2018-08-10T12:47:13.400Z,58.70
2018-08-10T12:49:41.481Z,59.00
2018-08-10T12:52:09.516Z,59.40
2018-08-10T12:54:37.654Z,59.50
2018-08-10T12:57:05.761Z,58.90
2018-08-10T12:59:33.748Z,58.20
2018-08-10T13:02:01.811Z,58.70
2018-08-10T13:04:29.871Z,57.80
2018-08-10T13:06:57.933Z,58.30
2018-08-10T13:09:25.998Z,54.50
2018-08-10T13:11:54.067Z,55.00
2018-08-10T13:14:22.116Z,55.50
2018-08-10T13:16:50.176Z,53.50
2018-08-10T13:19:18.256Z,55.10
2018-08-10T13:21:46.333Z,56.20
2018-08-10T13:24:14.405Z,56.60
2018-08-10T13:26:42.525Z,55.50
2018-08-10T13:29:10.633Z,56.70
2018-08-10T13:31:38.718Z,56.90
2018-08-10T13:34:06.748Z,55.50
2018-08-10T13:36:34.897Z,56.20
2018-08-10T13:39:02.996Z,56.40
2018-08-10T13:41:31.158Z,55.20
2018-08-10T13:43:59.192Z,54.60
2018-08-10T13:46:27.328Z,54.80
2018-08-10T13:48:55.376Z,53.10
2018-08-10T13:51:23.447Z,53.00
2018-08-10T13:53:51.512Z,52.80
2018-08-10T13:56:19.596Z,50.50
2018-08-10T13:58:47.868Z,50.60
2018-08-10T14:01:15.808Z,51.60
2018-08-10T14:03:43.896Z,51.00
2018-08-10T14:06:12.073Z,48.20
2018-08-10T14:08:40.144Z,47.40
2018-08-10T14:11:08.279Z,47.40
2018-08-10T14:13:36.362Z,48.40
2018-08-10T14:16:04.424Z,46.80
2018-08-10T14:18:32.744Z,47.90
2018-08-10T14:21:00.879Z,47.70
2018-08-10T14:23:28.924Z,47.40
2018-08-10T14:25:57.094Z,47.20
2018-08-10T14:28:25.179Z,45.70
2018-08-10T14:30:53.366Z,46.20
2018-08-10T14:33:21.453Z,46.40
2018-08-10T14:35:49.448Z,49.00
2018-08-10T14:38:17.488Z,47.90
2018-08-10T14:40:45.536Z,48.00
2018-08-10T14:45:48.224Z,48.70
2018-08-10T14:48:16.309Z,48.00
2018-08-10T14:50:44.354Z,48.30
2018-08-10T14:53:12.397Z,46.80
2018-08-10T14:55:40.457Z,46.50
2018-08-10T14:58:08.524Z,45.50
2018-08-10T15:00:36.580Z,45.80
2018-08-10T15:03:04.922Z,46.70
2018-08-10T15:05:32.936Z,46.70
2018-08-10T15:08:01.027Z,46.90
2018-08-10T15:10:29.093Z,48.20
2018-08-10T15:12:57.336Z,47.60
2018-08-10T15:15:25.226Z,46.90
2018-08-10T15:17:53.296Z,46.90
2018-08-10T15:20:21.619Z,46.90
2018-08-10T15:22:49.703Z,46.90
2018-08-10T15:25:17.893Z,47.40
2018-08-10T15:27:45.967Z,46.20
2018-08-10T15:30:16.124Z,47.30
2018-08-10T15:32:44.232Z,48.40
2018-08-10T15:35:13.715Z,46.10
2018-08-10T15:37:41.828Z,47.00
2018-08-10T15:40:12.071Z,48.40
2018-08-10T15:42:40.149Z,49.10
2018-08-10T15:45:10.159Z,49.60
2018-08-10T15:47:38.219Z,48.60
2018-08-10T15:50:07.145Z,48.00
2018-08-10T15:52:35.317Z,47.80
2018-08-10T15:55:03.412Z,49.30
2018-08-10T15:57:31.589Z,48.60
2018-08-10T15:59:59.641Z,47.60
2018-08-10T16:02:27.884Z,47.70
2018-08-10T16:04:55.959Z,47.80
2018-08-10T16:07:24.016Z,47.60
2018-08-10T16:09:52.081Z,47.80
2018-08-10T16:12:20.177Z,47.70
2018-08-10T16:14:48.309Z,48.10
2018-08-10T16:17:16.377Z,48.40
2018-08-10T16:19:44.880Z,49.00
2018-08-10T16:22:12.944Z,48.60
2018-08-10T16:24:41.020Z,49.20
2018-08-10T16:27:09.448Z,49.20
2018-08-10T16:29:37.516Z,48.90
2018-08-10T16:32:05.588Z,49.30
2018-08-10T16:34:33.648Z,48.00
2018-08-10T16:37:01.761Z,49.30
2018-08-10T16:39:29.825Z,49.30
2018-08-10T16:41:57.933Z,48.70
2018-08-10T16:44:32.893Z,48.90
2018-08-10T16:47:00.981Z,49.20
2018-08-10T16:49:29.053Z,47.60
2018-08-10T16:51:57.481Z,47.50
2018-08-10T16:54:25.540Z,47.80
2018-08-10T16:56:53.612Z,47.70
2018-08-10T16:59:21.680Z,48.40
2018-08-10T17:01:49.782Z,49.20
2018-08-10T17:04:17.867Z,47.80
2018-08-10T17:06:45.920Z,48.40
2018-08-10T17:09:14.057Z,49.40
2018-08-10T17:11:42.144Z,48.90
2018-08-10T17:14:10.250Z,50.00
2018-08-10T17:16:38.395Z,49.60
2018-08-10T17:19:06.532Z,50.20
2018-08-10T17:21:34.584Z,50.10
2018-08-10T17:24:02.650Z,50.60
2018-08-10T17:26:30.773Z,49.80
2018-08-10T17:28:58.764Z,49.80
2018-08-10T17:31:26.901Z,51.30
2018-08-10T17:33:54.945Z,50.80
2018-08-10T17:36:23.122Z,50.40
2018-08-10T17:38:51.191Z,50.90
2018-08-10T17:41:19.270Z,51.10
2018-08-10T17:43:47.434Z,52.80
2018-08-10T17:46:15.560Z,52.10
2018-08-10T17:48:43.620Z,52.30
2018-08-10T17:51:11.673Z,53.00
2018-08-10T17:53:39.753Z,52.80
2018-08-10T17:56:07.853Z,52.10
2018-08-10T17:58:36.052Z,52.40
2018-08-10T18:01:04.101Z,52.30
2018-08-10T18:03:32.212Z,53.00
2018-08-10T18:06:00.292Z,52.50
2018-08-10T18:08:28.483Z,52.50
2018-08-10T18:10:56.512Z,53.00
2018-08-10T18:13:24.621Z,53.20
2018-08-10T18:15:52.671Z,53.40
2018-08-10T18:18:20.724Z,55.10
2018-08-10T18:20:48.769Z,55.00
2018-08-10T18:23:16.887Z,55.70
2018-08-10T18:25:45.075Z,56.90
2018-08-10T18:28:13.096Z,56.30
2018-08-10T18:30:41.448Z,56.80
2018-08-10T18:33:09.480Z,56.90
2018-08-10T18:35:37.619Z,57.30
2018-08-10T18:38:05.844Z,57.20
2018-08-10T18:40:33.895Z,57.60
2018-08-10T18:43:01.973Z,58.00
2018-08-10T18:45:30.009Z,58.50
2018-08-10T18:47:58.044Z,58.10
2018-08-10T18:50:26.231Z,59.50
2018-08-10T18:52:54.219Z,58.80
2018-08-10T18:55:23.238Z,58.40
2018-08-10T18:57:51.828Z,59.50
2018-08-10T19:00:22.028Z,58.60
2018-08-10T19:02:50.160Z,59.20
2018-08-10T19:05:18.648Z,60.00
2018-08-10T19:07:47.441Z,60.20
2018-08-10T19:10:18.596Z,60.30
2018-08-10T19:12:46.645Z,60.50
2018-08-10T19:15:14.736Z,62.20
2018-08-10T19:17:42.881Z,62.60
2018-08-10T19:20:11.692Z,62.00
2018-08-10T19:22:39.737Z,62.50
2018-08-10T19:25:09.531Z,62.50
2018-08-10T19:27:37.553Z,61.70
2018-08-10T19:30:08.305Z,62.30
2018-08-10T19:32:36.470Z,62.60
2018-08-10T19:35:05.245Z,63.00
2018-08-10T19:37:33.355Z,62.60
2018-08-10T19:40:01.543Z,63.40
2018-08-10T19:42:29.559Z,62.80
2018-08-10T19:44:57.712Z,64.40
2018-08-10T19:47:25.753Z,64.50
2018-08-10T19:49:53.882Z,65.10
2018-08-10T19:52:21.967Z,65.80
2018-08-10T19:54:49.992Z,65.20
2018-08-10T19:57:18.140Z,65.60
2018-08-10T19:59:46.236Z,65.40
2018-08-10T20:02:14.416Z,68.20
2018-08-10T20:04:42.495Z,69.90
2018-08-10T20:07:10.579Z,69.20
2018-08-10T20:09:38.651Z,70.50
2018-08-10T20:12:06.764Z,70.30
2018-08-10T20:14:34.825Z,71.10
2018-08-10T20:17:02.918Z,73.20
2018-08-10T20:19:31.000Z,74.50
2018-08-10T20:21:59.034Z,75.00
2018-08-10T20:24:27.128Z,76.80
2018-08-10T20:26:55.193Z,78.30
2018-08-10T20:29:23.272Z,79.60
2018-08-10T20:31:51.426Z,80.80
2018-08-10T20:34:19.519Z,80.70
2018-08-10T20:36:47.596Z,82.20
2018-08-10T20:39:15.721Z,84.10
2018-08-10T20:41:43.776Z,85.00
2018-08-10T20:44:11.889Z,84.50
2018-08-10T20:46:40.510Z,86.10
2018-08-10T20:49:08.635Z,84.80
2018-08-10T20:51:36.727Z,83.00
2018-08-10T20:54:04.906Z,83.80
2018-08-10T20:56:32.993Z,82.00
2018-08-10T20:59:01.037Z,85.40
2018-08-10T21:01:29.159Z,88.90
2018-08-10T21:03:57.259Z,90.30
2018-08-10T21:06:25.300Z,88.30
2018-08-10T21:08:53.413Z,87.60
2018-08-10T21:11:21.501Z,86.00
2018-08-10T21:13:49.564Z,85.90
2018-08-10T21:16:17.670Z,85.30
2018-08-10T21:18:45.713Z,85.10
2018-08-10T21:21:13.785Z,83.20
2018-08-10T21:23:42.088Z,83.90
2018-08-10T21:26:10.148Z,87.70
2018-08-10T21:28:38.236Z,88.40
2018-08-10T21:31:06.392Z,86.80
2018-08-10T21:33:34.570Z,85.40
2018-08-10T21:36:02.624Z,83.40
2018-08-10T21:38:30.683Z,84.20
2018-08-10T21:40:58.747Z,85.70
2018-08-10T21:43:26.899Z,88.20
2018-08-10T21:45:54.936Z,90.00
2018-08-10T21:48:23.049Z,90.90
2018-08-10T21:50:51.056Z,91.20
2018-08-10T21:53:19.110Z,91.40
2018-08-10T21:55:47.172Z,91.70
2018-08-10T21:58:15.258Z,92.20
2018-08-10T22:00:50.550Z,91.60
2018-08-10T22:03:19.259Z,91.60
2018-08-10T22:05:47.775Z,91.20
2018-08-10T22:08:16.165Z,91.30
2018-08-10T22:10:44.211Z,92.00
2018-08-10T22:13:17.818Z,92.00
2018-08-10T22:15:51.312Z,92.10
2018-08-10T22:18:24.727Z,91.40
2018-08-10T22:20:53.089Z,91.10
2018-08-10T22:23:21.133Z,91.10
2018-08-10T22:25:49.272Z,91.10
2018-08-10T22:28:17.312Z,91.20
2018-08-10T22:30:45.507Z,91.60
2018-08-10T22:33:13.527Z,90.90
2018-08-10T22:35:42.101Z,90.80
2018-08-10T22:38:10.384Z,90.80
2018-08-10T22:40:38.565Z,91.10
2018-08-10T22:43:06.772Z,91.40
2018-08-10T22:45:34.820Z,91.00
2018-08-10T22:48:02.880Z,90.90
2018-08-10T22:50:31.046Z,90.70
2018-08-10T22:52:59.073Z,90.80
2018-08-10T22:55:27.117Z,91.00
2018-08-10T22:57:55.155Z,91.20
2018-08-10T23:00:23.192Z,91.20
2018-08-10T23:02:51.237Z,91.40
2018-08-10T23:05:19.280Z,91.20
2018-08-10T23:07:47.360Z,91.10
2018-08-10T23:10:15.891Z,91.10
2018-08-10T23:12:44.504Z,91.00
2018-08-10T23:15:12.670Z,91.00
2018-08-10T23:17:41.283Z,91.50
2018-08-10T23:20:11.509Z,91.90
2018-08-10T23:22:39.599Z,92.50
2018-08-10T23:25:09.728Z,91.90
2018-08-10T23:27:37.792Z,92.30
2018-08-10T23:30:08.197Z,92.40
2018-08-10T23:32:36.264Z,92.50
2018-08-10T23:35:04.654Z,92.70
2018-08-10T23:37:32.751Z,92.70
2018-08-10T23:40:00.805Z,92.40
2018-08-10T23:42:28.873Z,92.40
2018-08-10T23:44:57.067Z,91.80
2018-08-10T23:47:25.148Z,92.10
2018-08-10T23:49:53.331Z,92.20
2018-08-10T23:52:21.382Z,92.00
2018-08-10T23:54:49.450Z,92.00
2018-08-10T23:57:17.586Z,91.90
2018-08-10T23:59:45.672Z,92.00
